sensor_id;sensor_type;location;lat;lon;timestamp;pressure;altitude;pressure_sealevel;temperature;humidity
13974;BME280;7060;43.770;4.008;2023-06-04T00:01:42;100989.28;;;17.22;68.29
13974;BME280;7060;43.770;4.008;2023-06-04T00:04:13;100991.22;;;17.14;68.23
13974;BME280;7060;43.770;4.008;2023-06-04T00:06:41;100968.75;;;16.99;68.20
13974;BME280;7060;43.770;4.008;2023-06-04T00:09:11;100982.38;;;17.05;68.33
13974;BME280;7060;43.770;4.008;2023-06-04T00:11:39;100980.84;;;17.03;68.29
13974;BME280;7060;43.770;4.008;2023-06-04T00:14:08;100976.84;;;16.99;68.42
13974;BME280;7060;43.770;4.008;2023-06-04T00:16:38;100977.56;;;16.92;68.50
13974;BME280;7060;43.770;4.008;2023-06-04T00:19:08;100973.72;;;16.87;68.67
13974;BME280;7060;43.770;4.008;2023-06-04T00:21:36;100970.53;;;16.83;68.46
13974;BME280;7060;43.770;4.008;2023-06-04T00:24:05;100973.59;;;16.80;68.65
13974;BME280;7060;43.770;4.008;2023-06-04T00:26:34;100980.56;;;16.75;68.62
13974;BME280;7060;43.770;4.008;2023-06-04T00:29:02;100981.28;;;16.69;68.60
13974;BME280;7060;43.770;4.008;2023-06-04T00:31:31;100980.09;;;16.63;68.76
13974;BME280;7060;43.770;4.008;2023-06-04T00:34:01;100982.69;;;16.56;68.82
13974;BME280;7060;43.770;4.008;2023-06-04T00:36:29;100990.00;;;16.48;69.12
13974;BME280;7060;43.770;4.008;2023-06-04T00:38:59;100978.81;;;16.51;69.10
13974;BME280;7060;43.770;4.008;2023-06-04T00:41:27;100978.13;;;16.57;68.79
13974;BME280;7060;43.770;4.008;2023-06-04T00:43:56;100970.03;;;16.57;68.27
13974;BME280;7060;43.770;4.008;2023-06-04T00:46:25;100985.56;;;16.55;68.06
13974;BME280;7060;43.770;4.008;2023-06-04T00:48:57;100967.69;;;16.54;67.95
13974;BME280;7060;43.770;4.008;2023-06-04T00:51:29;100968.03;;;16.51;68.07
13974;BME280;7060;43.770;4.008;2023-06-04T00:53:59;100937.22;;;16.22;67.85
13974;BME280;7060;43.770;4.008;2023-06-04T00:56:28;100974.91;;;16.31;68.23
13974;BME280;7060;43.770;4.008;2023-06-04T00:58:57;100973.56;;;16.26;68.27
13974;BME280;7060;43.770;4.008;2023-06-04T01:01:31;100977.47;;;16.24;68.42
13974;BME280;7060;43.770;4.008;2023-06-04T01:04:04;100979.03;;;16.18;68.61
13974;BME280;7060;43.770;4.008;2023-06-04T01:06:43;100974.00;;;16.15;68.61
13974;BME280;7060;43.770;4.008;2023-06-04T01:09:12;100978.41;;;16.08;68.77
13974;BME280;7060;43.770;4.008;2023-06-04T01:11:42;100977.72;;;16.06;69.10
13974;BME280;7060;43.770;4.008;2023-06-04T01:14:10;100977.38;;;16.09;68.96
13974;BME280;7060;43.770;4.008;2023-06-04T01:16:47;100976.03;;;16.13;69.04
13974;BME280;7060;43.770;4.008;2023-06-04T01:22:24;100977.03;;;16.12;68.74
13974;BME280;7060;43.770;4.008;2023-06-04T01:25:02;100975.22;;;16.05;68.86
13974;BME280;7060;43.770;4.008;2023-06-04T01:27:31;100978.91;;;16.04;68.93
13974;BME280;7060;43.770;4.008;2023-06-04T01:30:03;100988.19;;;16.01;68.86
13974;BME280;7060;43.770;4.008;2023-06-04T01:32:32;100973.59;;;15.96;69.05
13974;BME280;7060;43.770;4.008;2023-06-04T01:35:01;100891.41;;;15.36;68.98
13974;BME280;7060;43.770;4.008;2023-06-04T01:37:31;100966.22;;;15.73;68.94
13974;BME280;7060;43.770;4.008;2023-06-04T01:39:59;100981.06;;;15.77;69.43
13974;BME280;7060;43.770;4.008;2023-06-04T01:42:28;100988.81;;;15.72;69.43
13974;BME280;7060;43.770;4.008;2023-06-04T01:44:56;100984.13;;;15.66;69.63
13974;BME280;7060;43.770;4.008;2023-06-04T01:47:25;100982.75;;;15.62;69.69
13974;BME280;7060;43.770;4.008;2023-06-04T01:49:53;100982.75;;;15.62;69.69
13974;BME280;7060;43.770;4.008;2023-06-04T01:52:23;100983.94;;;15.59;69.83
13974;BME280;7060;43.770;4.008;2023-06-04T01:54:53;100986.81;;;15.58;69.67
13974;BME280;7060;43.770;4.008;2023-06-04T01:57:22;100979.72;;;15.57;69.74
13974;BME280;7060;43.770;4.008;2023-06-04T01:59:51;100980.22;;;15.61;69.75
13974;BME280;7060;43.770;4.008;2023-06-04T02:02:20;100980.78;;;15.64;69.67
13974;BME280;7060;43.770;4.008;2023-06-04T02:04:48;100978.06;;;15.64;69.55
13974;BME280;7060;43.770;4.008;2023-06-04T02:07:19;100974.19;;;15.67;69.38
13974;BME280;7060;43.770;4.008;2023-06-04T02:09:48;100971.13;;;15.62;69.45
13974;BME280;7060;43.770;4.008;2023-06-04T02:12:19;100973.69;;;15.55;69.27
13974;BME280;7060;43.770;4.008;2023-06-04T02:14:47;100965.44;;;15.48;69.37
13974;BME280;7060;43.770;4.008;2023-06-04T02:17:16;100964.94;;;15.45;69.40
13974;BME280;7060;43.770;4.008;2023-06-04T02:19:44;100961.41;;;15.44;69.62
13974;BME280;7060;43.770;4.008;2023-06-04T02:22:17;100952.16;;;15.39;69.60
13974;BME280;7060;43.770;4.008;2023-06-04T02:24:46;100959.53;;;15.45;69.77
13974;BME280;7060;43.770;4.008;2023-06-04T02:27:15;100962.91;;;15.47;69.67
13974;BME280;7060;43.770;4.008;2023-06-04T02:29:44;100961.72;;;15.49;69.57
13974;BME280;7060;43.770;4.008;2023-06-04T02:32:13;100960.03;;;15.48;69.38
13974;BME280;7060;43.770;4.008;2023-06-04T02:34:41;100956.69;;;15.46;69.23
13974;BME280;7060;43.770;4.008;2023-06-04T02:37:10;100959.88;;;15.42;69.30
13974;BME280;7060;43.770;4.008;2023-06-04T02:39:38;100956.03;;;15.36;69.24
13974;BME280;7060;43.770;4.008;2023-06-04T02:42:07;100958.41;;;15.31;69.31
13974;BME280;7060;43.770;4.008;2023-06-04T02:44:36;100961.59;;;15.27;69.45
13974;BME280;7060;43.770;4.008;2023-06-04T02:47:06;100966.50;;;15.23;69.20
13974;BME280;7060;43.770;4.008;2023-06-04T02:49:35;100954.03;;;15.14;69.43
13974;BME280;7060;43.770;4.008;2023-06-04T02:52:04;100956.59;;;15.07;69.84
13974;BME280;7060;43.770;4.008;2023-06-04T02:54:32;100948.34;;;15.01;70.04
13974;BME280;7060;43.770;4.008;2023-06-04T02:57:01;100951.53;;;14.96;70.39
13974;BME280;7060;43.770;4.008;2023-06-04T02:59:30;100959.63;;;14.96;70.47
13974;BME280;7060;43.770;4.008;2023-06-04T03:01:59;100956.25;;;14.94;70.64
13974;BME280;7060;43.770;4.008;2023-06-04T03:04:29;100955.06;;;14.97;70.57
13974;BME280;7060;43.770;4.008;2023-06-04T03:07:01;100955.06;;;14.97;70.34
13974;BME280;7060;43.770;4.008;2023-06-04T03:09:30;100956.91;;;14.96;70.41
13974;BME280;7060;43.770;4.008;2023-06-04T03:12:00;100946.16;;;14.88;70.45
13974;BME280;7060;43.770;4.008;2023-06-04T03:14:29;100953.88;;;14.91;70.39
13974;BME280;7060;43.770;4.008;2023-06-04T03:17:02;100959.59;;;14.88;70.32
13974;BME280;7060;43.770;4.008;2023-06-04T03:19:37;100961.16;;;14.82;70.33
13974;BME280;7060;43.770;4.008;2023-06-04T03:22:07;100950.88;;;14.78;70.59
13974;BME280;7060;43.770;4.008;2023-06-04T03:24:37;100819.66;;;13.99;70.44
13974;BME280;7060;43.770;4.008;2023-06-04T03:27:09;100953.72;;;14.76;70.76
13974;BME280;7060;43.770;4.008;2023-06-04T03:29:40;100951.88;;;14.69;70.69
13974;BME280;7060;43.770;4.008;2023-06-04T03:32:10;100947.00;;;14.72;70.82
13974;BME280;7060;43.770;4.008;2023-06-04T03:34:42;100950.03;;;14.77;70.42
13974;BME280;7060;43.770;4.008;2023-06-04T03:37:11;100950.53;;;14.81;70.29
13974;BME280;7060;43.770;4.008;2023-06-04T03:39:39;100952.22;;;14.82;70.20
13974;BME280;7060;43.770;4.008;2023-06-04T03:42:10;100949.03;;;14.78;70.24
13974;BME280;7060;43.770;4.008;2023-06-04T03:44:39;100954.41;;;14.78;70.10
13974;BME280;7060;43.770;4.008;2023-06-04T03:47:07;100959.44;;;14.73;70.27
13974;BME280;7060;43.770;4.008;2023-06-04T03:49:36;100959.13;;;14.76;70.46
13974;BME280;7060;43.770;4.008;2023-06-04T03:52:06;100965.53;;;14.83;70.25
13974;BME280;7060;43.770;4.008;2023-06-04T03:54:37;100975.44;;;14.83;70.27
13974;BME280;7060;43.770;4.008;2023-06-04T03:57:06;100970.91;;;14.83;70.26
13974;BME280;7060;43.770;4.008;2023-06-04T03:59:35;100971.41;;;14.79;70.17
13974;BME280;7060;43.770;4.008;2023-06-04T04:02:03;100975.94;;;14.70;70.21
13974;BME280;7060;43.770;4.008;2023-06-04T04:04:33;100973.22;;;14.62;70.60
13974;BME280;7060;43.770;4.008;2023-06-04T04:07:02;100971.91;;;14.58;70.79
13974;BME280;7060;43.770;4.008;2023-06-04T04:09:34;100967.16;;;14.60;70.59
13974;BME280;7060;43.770;4.008;2023-06-04T04:12:03;100966.16;;;14.61;70.41
13974;BME280;7060;43.770;4.008;2023-06-04T04:14:33;100968.84;;;14.61;70.29
13974;BME280;7060;43.770;4.008;2023-06-04T04:17:03;100974.59;;;14.58;70.47
13974;BME280;7060;43.770;4.008;2023-06-04T04:19:32;100970.66;;;14.52;70.75
13974;BME280;7060;43.770;4.008;2023-06-04T04:22:00;100964.44;;;14.52;71.01
13974;BME280;7060;43.770;4.008;2023-06-04T04:24:30;100963.97;;;14.56;70.89
13974;BME280;7060;43.770;4.008;2023-06-04T04:27:03;100955.91;;;14.56;70.83
13974;BME280;7060;43.770;4.008;2023-06-04T04:29:32;100964.13;;;14.55;71.05
13974;BME280;7060;43.770;4.008;2023-06-04T04:32:02;100961.97;;;14.59;71.07
13974;BME280;7060;43.770;4.008;2023-06-04T04:34:50;100954.34;;;14.54;70.85
13974;BME280;7060;43.770;4.008;2023-06-04T04:37:23;100968.84;;;14.69;70.77
13974;BME280;7060;43.770;4.008;2023-06-04T04:39:54;100970.53;;;14.70;70.52
13974;BME280;7060;43.770;4.008;2023-06-04T04:42:25;100965.66;;;14.74;70.35
13974;BME280;7060;43.770;4.008;2023-06-04T04:44:54;100968.53;;;14.72;70.35
13974;BME280;7060;43.770;4.008;2023-06-04T04:47:24;100977.59;;;14.71;70.57
13974;BME280;7060;43.770;4.008;2023-06-04T04:49:53;100977.28;;;14.74;70.62
13974;BME280;7060;43.770;4.008;2023-06-04T04:52:22;100981.16;;;14.80;70.74
13974;BME280;7060;43.770;4.008;2023-06-04T04:54:50;100970.91;;;14.83;70.70
13974;BME280;7060;43.770;4.008;2023-06-04T04:57:23;100975.28;;;14.84;70.79
13974;BME280;7060;43.770;4.008;2023-06-04T04:59:55;100973.22;;;14.86;70.82
13974;BME280;7060;43.770;4.008;2023-06-04T05:02:24;100976.59;;;14.88;70.97
13974;BME280;7060;43.770;4.008;2023-06-04T05:04:53;100976.44;;;14.90;71.17
13974;BME280;7060;43.770;4.008;2023-06-04T05:07:22;100971.56;;;14.94;71.41
13974;BME280;7060;43.770;4.008;2023-06-04T05:09:53;100968.19;;;15.00;71.42
13974;BME280;7060;43.770;4.008;2023-06-04T05:12:25;100949.00;;;14.95;71.43
13974;BME280;7060;43.770;4.008;2023-06-04T05:14:55;100977.59;;;15.28;71.92
13974;BME280;7060;43.770;4.008;2023-06-04T05:17:25;100986.47;;;15.45;71.39
13974;BME280;7060;43.770;4.008;2023-06-04T05:20:03;100989.00;;;15.63;71.47
13974;BME280;7060;43.770;4.008;2023-06-04T05:22:35;100980.56;;;15.74;71.35
13974;BME280;7060;43.770;4.008;2023-06-04T05:25:05;100977.16;;;15.80;71.11
13974;BME280;7060;43.770;4.008;2023-06-04T05:27:36;100976.13;;;15.89;71.34
13974;BME280;7060;43.770;4.008;2023-06-04T05:30:09;100973.00;;;16.08;71.58
13974;BME280;7060;43.770;4.008;2023-06-04T05:32:38;100978.09;;;16.34;71.52
13974;BME280;7060;43.770;4.008;2023-06-04T05:35:11;100977.09;;;16.58;71.13
13974;BME280;7060;43.770;4.008;2023-06-04T05:37:42;100969.28;;;16.71;71.60
13974;BME280;7060;43.770;4.008;2023-06-04T05:40:15;100971.75;;;17.04;71.05
13974;BME280;7060;43.770;4.008;2023-06-04T05:42:44;100974.56;;;17.25;70.77
13974;BME280;7060;43.770;4.008;2023-06-04T05:45:14;100976.84;;;17.51;70.49
13974;BME280;7060;43.770;4.008;2023-06-04T05:47:44;100989.19;;;17.83;70.33
13974;BME280;7060;43.770;4.008;2023-06-04T05:50:12;100993.28;;;18.44;69.71
13974;BME280;7060;43.770;4.008;2023-06-04T05:52:41;100989.22;;;19.12;68.50
13974;BME280;7060;43.770;4.008;2023-06-04T05:55:11;100967.09;;;19.65;66.25
13974;BME280;7060;43.770;4.008;2023-06-04T05:57:41;100992.94;;;20.30;64.80
13974;BME280;7060;43.770;4.008;2023-06-04T06:00:11;100911.91;;;20.33;62.95
13974;BME280;7060;43.770;4.008;2023-06-04T06:02:42;100987.47;;;21.37;61.67
13974;BME280;7060;43.770;4.008;2023-06-04T06:05:24;100969.66;;;21.60;60.53
13974;BME280;7060;43.770;4.008;2023-06-04T06:07:53;100991.28;;;22.20;59.26
13974;BME280;7060;43.770;4.008;2023-06-04T06:10:23;100993.16;;;22.64;58.22
13974;BME280;7060;43.770;4.008;2023-06-04T06:12:51;100986.19;;;23.06;56.70
13974;BME280;7060;43.770;4.008;2023-06-04T06:15:20;100996.53;;;23.47;55.67
13974;BME280;7060;43.770;4.008;2023-06-04T06:17:53;100993.97;;;23.95;54.26
13974;BME280;7060;43.770;4.008;2023-06-04T06:20:21;101000.41;;;24.19;54.04
13974;BME280;7060;43.770;4.008;2023-06-04T06:22:51;100999.81;;;24.47;53.29
13974;BME280;7060;43.770;4.008;2023-06-04T06:25:21;101003.94;;;24.86;52.05
13974;BME280;7060;43.770;4.008;2023-06-04T06:27:56;101001.75;;;25.18;52.23
13974;BME280;7060;43.770;4.008;2023-06-04T06:30:26;101009.06;;;25.59;50.33
13974;BME280;7060;43.770;4.008;2023-06-04T06:32:55;100982.34;;;25.90;49.69
13974;BME280;7060;43.770;4.008;2023-06-04T06:35:24;101008.00;;;26.36;48.34
13974;BME280;7060;43.770;4.008;2023-06-04T06:37:54;101008.56;;;26.49;48.35
13974;BME280;7060;43.770;4.008;2023-06-04T06:40:22;101011.22;;;26.73;47.48
13974;BME280;7060;43.770;4.008;2023-06-04T06:42:51;101004.78;;;26.95;47.46
13974;BME280;7060;43.770;4.008;2023-06-04T06:45:20;101002.91;;;27.29;46.53
13974;BME280;7060;43.770;4.008;2023-06-04T06:47:48;101005.25;;;27.38;45.81
13974;BME280;7060;43.770;4.008;2023-06-04T06:50:18;101010.31;;;27.62;44.89
13974;BME280;7060;43.770;4.008;2023-06-04T06:52:47;101001.28;;;27.84;44.90
13974;BME280;7060;43.770;4.008;2023-06-04T06:55:15;100997.47;;;28.07;44.68
13974;BME280;7060;43.770;4.008;2023-06-04T06:57:44;101003.03;;;28.34;44.13
13974;BME280;7060;43.770;4.008;2023-06-04T07:00:14;101002.50;;;28.37;43.46
13974;BME280;7060;43.770;4.008;2023-06-04T07:02:42;101000.94;;;28.41;43.59
13974;BME280;7060;43.770;4.008;2023-06-04T07:05:11;100997.84;;;28.59;43.03
13974;BME280;7060;43.770;4.008;2023-06-04T07:07:42;101000.38;;;28.66;42.60
13974;BME280;7060;43.770;4.008;2023-06-04T07:10:11;100999.72;;;28.80;42.45
13974;BME280;7060;43.770;4.008;2023-06-04T07:12:40;101000.28;;;28.82;42.31
13974;BME280;7060;43.770;4.008;2023-06-04T07:15:09;101004.34;;;28.75;42.36
13974;BME280;7060;43.770;4.008;2023-06-04T07:17:38;101001.03;;;28.73;42.72
13974;BME280;7060;43.770;4.008;2023-06-04T07:20:07;100999.75;;;28.85;42.68
13974;BME280;7060;43.770;4.008;2023-06-04T07:22:36;101001.94;;;28.83;42.79
13974;BME280;7060;43.770;4.008;2023-06-04T07:25:07;101006.19;;;28.96;42.10
13974;BME280;7060;43.770;4.008;2023-06-04T07:27:36;100998.84;;;29.02;42.32
13974;BME280;7060;43.770;4.008;2023-06-04T07:30:06;101008.91;;;28.91;42.17
13974;BME280;7060;43.770;4.008;2023-06-04T07:32:36;101003.78;;;29.00;41.43
13974;BME280;7060;43.770;4.008;2023-06-04T07:35:05;101008.69;;;29.24;41.26
13974;BME280;7060;43.770;4.008;2023-06-04T07:37:33;101001.41;;;29.08;40.97
13974;BME280;7060;43.770;4.008;2023-06-04T07:40:02;100944.84;;;28.69;41.61
13974;BME280;7060;43.770;4.008;2023-06-04T07:42:32;100994.88;;;28.92;41.16
13974;BME280;7060;43.770;4.008;2023-06-04T07:45:01;100999.28;;;28.93;40.94
13974;BME280;7060;43.770;4.008;2023-06-04T07:47:29;101005.19;;;28.75;41.25
13974;BME280;7060;43.770;4.008;2023-06-04T07:49:58;101005.63;;;28.67;41.21
13974;BME280;7060;43.770;4.008;2023-06-04T07:52:29;100998.31;;;28.78;40.75
13974;BME280;7060;43.770;4.008;2023-06-04T07:54:57;100998.50;;;28.44;41.96
13974;BME280;7060;43.770;4.008;2023-06-04T07:57:26;100997.19;;;28.30;42.47
13974;BME280;7060;43.770;4.008;2023-06-04T07:59:56;101001.63;;;28.31;42.88
13974;BME280;7060;43.770;4.008;2023-06-04T08:02:24;101002.94;;;28.45;42.77
13974;BME280;7060;43.770;4.008;2023-06-04T08:04:53;100996.69;;;28.33;42.03
13974;BME280;7060;43.770;4.008;2023-06-04T08:07:22;100994.25;;;28.37;41.77
13974;BME280;7060;43.770;4.008;2023-06-04T08:09:50;100992.75;;;28.46;41.98
13974;BME280;7060;43.770;4.008;2023-06-04T08:12:19;100991.00;;;28.40;41.51
13974;BME280;7060;43.770;4.008;2023-06-04T08:14:47;100987.19;;;28.41;40.96
13974;BME280;7060;43.770;4.008;2023-06-04T08:17:18;100989.69;;;28.42;41.21
13974;BME280;7060;43.770;4.008;2023-06-04T08:19:47;100991.88;;;28.40;41.40
13974;BME280;7060;43.770;4.008;2023-06-04T08:22:15;101000.13;;;28.40;40.97
13974;BME280;7060;43.770;4.008;2023-06-04T08:24:43;100997.72;;;28.27;41.09
13974;BME280;7060;43.770;4.008;2023-06-04T08:27:12;100997.94;;;28.20;40.20
13974;BME280;7060;43.770;4.008;2023-06-04T08:29:41;101000.34;;;27.95;40.34
13974;BME280;7060;43.770;4.008;2023-06-04T08:32:09;100996.06;;;28.04;39.95
13974;BME280;7060;43.770;4.008;2023-06-04T08:34:39;100999.78;;;27.93;39.00
13974;BME280;7060;43.770;4.008;2023-06-04T08:37:08;100992.94;;;27.95;40.39
13974;BME280;7060;43.770;4.008;2023-06-04T08:39:36;100996.13;;;28.09;40.85
13974;BME280;7060;43.770;4.008;2023-06-04T08:42:06;100991.97;;;28.07;41.40
13974;BME280;7060;43.770;4.008;2023-06-04T08:44:37;100988.66;;;28.05;41.72
13974;BME280;7060;43.770;4.008;2023-06-04T08:47:07;100992.88;;;27.74;41.91
13974;BME280;7060;43.770;4.008;2023-06-04T08:49:36;100997.66;;;27.61;42.60
13974;BME280;7060;43.770;4.008;2023-06-04T08:52:06;100997.06;;;27.59;42.58
13974;BME280;7060;43.770;4.008;2023-06-04T08:54:35;101000.72;;;27.48;41.51
13974;BME280;7060;43.770;4.008;2023-06-04T08:57:04;100993.44;;;27.37;41.75
13974;BME280;7060;43.770;4.008;2023-06-04T08:59:33;101002.84;;;27.24;41.70
13974;BME280;7060;43.770;4.008;2023-06-04T09:02:02;100993.56;;;26.97;41.69
13974;BME280;7060;43.770;4.008;2023-06-04T09:04:31;100983.41;;;26.97;42.22
13974;BME280;7060;43.770;4.008;2023-06-04T09:07:01;100983.56;;;26.91;42.09
13974;BME280;7060;43.770;4.008;2023-06-04T09:09:33;100970.44;;;26.76;42.15
13974;BME280;7060;43.770;4.008;2023-06-04T09:12:09;100980.91;;;26.79;42.02
13974;BME280;7060;43.770;4.008;2023-06-04T09:14:38;100977.19;;;26.85;42.50
13974;BME280;7060;43.770;4.008;2023-06-04T09:17:06;100976.75;;;26.93;42.23
13974;BME280;7060;43.770;4.008;2023-06-04T09:19:35;100978.00;;;27.03;42.56
13974;BME280;7060;43.770;4.008;2023-06-04T09:22:03;100984.56;;;27.18;42.17
13974;BME280;7060;43.770;4.008;2023-06-04T09:24:41;100972.63;;;27.24;40.92
13974;BME280;7060;43.770;4.008;2023-06-04T09:27:10;100979.28;;;27.28;41.12
13974;BME280;7060;43.770;4.008;2023-06-04T09:29:40;100980.22;;;27.34;40.98
13974;BME280;7060;43.770;4.008;2023-06-04T09:32:08;100978.19;;;27.46;41.02
13974;BME280;7060;43.770;4.008;2023-06-04T09:34:37;100976.28;;;27.47;41.26
13974;BME280;7060;43.770;4.008;2023-06-04T09:37:14;100963.31;;;27.42;41.53
13974;BME280;7060;43.770;4.008;2023-06-04T09:39:52;100981.16;;;27.61;40.89
13974;BME280;7060;43.770;4.008;2023-06-04T09:42:23;100971.69;;;27.52;40.86
13974;BME280;7060;43.770;4.008;2023-06-04T09:44:52;100974.50;;;27.57;40.28
13974;BME280;7060;43.770;4.008;2023-06-04T09:47:20;100979.84;;;27.64;39.79
13974;BME280;7060;43.770;4.008;2023-06-04T09:49:49;100978.69;;;27.60;40.40
13974;BME280;7060;43.770;4.008;2023-06-04T09:52:19;100983.63;;;27.80;40.56
13974;BME280;7060;43.770;4.008;2023-06-04T09:54:50;100975.66;;;28.00;40.01
13974;BME280;7060;43.770;4.008;2023-06-04T09:57:18;100982.19;;;28.16;39.32
13974;BME280;7060;43.770;4.008;2023-06-04T09:59:49;100981.13;;;28.17;38.87
13974;BME280;7060;43.770;4.008;2023-06-04T10:02:19;100977.38;;;28.28;39.45
13974;BME280;7060;43.770;4.008;2023-06-04T10:04:53;100974.19;;;28.36;38.61
13974;BME280;7060;43.770;4.008;2023-06-04T10:07:24;100969.16;;;28.50;39.02
13974;BME280;7060;43.770;4.008;2023-06-04T10:09:54;100962.19;;;28.69;37.85
13974;BME280;7060;43.770;4.008;2023-06-04T10:12:28;100965.56;;;28.76;38.82
13974;BME280;7060;43.770;4.008;2023-06-04T10:15:02;100966.72;;;28.80;37.57
13974;BME280;7060;43.770;4.008;2023-06-04T10:17:32;100960.63;;;28.78;38.81
13974;BME280;7060;43.770;4.008;2023-06-04T10:20:02;100957.97;;;28.88;39.01
13974;BME280;7060;43.770;4.008;2023-06-04T10:22:33;100962.50;;;29.00;38.03
13974;BME280;7060;43.770;4.008;2023-06-04T10:25:03;100955.81;;;28.95;38.09
13974;BME280;7060;43.770;4.008;2023-06-04T10:27:32;100964.16;;;29.01;38.02
13974;BME280;7060;43.770;4.008;2023-06-04T10:30:02;100905.88;;;28.77;37.37
13974;BME280;7060;43.770;4.008;2023-06-04T10:32:31;100955.94;;;29.06;37.51
13974;BME280;7060;43.770;4.008;2023-06-04T10:35:03;100957.50;;;29.28;38.63
13974;BME280;7060;43.770;4.008;2023-06-04T10:37:34;100944.16;;;29.15;36.98
13974;BME280;7060;43.770;4.008;2023-06-04T10:40:06;100946.78;;;29.32;36.86
13974;BME280;7060;43.770;4.008;2023-06-04T10:42:40;100950.41;;;29.43;36.90
13974;BME280;7060;43.770;4.008;2023-06-04T10:45:10;100940.78;;;29.45;36.96
13974;BME280;7060;43.770;4.008;2023-06-04T10:47:39;100950.19;;;29.49;36.61
13974;BME280;7060;43.770;4.008;2023-06-04T10:50:09;100941.22;;;29.27;37.30
13974;BME280;7060;43.770;4.008;2023-06-04T10:52:39;100953.78;;;29.08;36.92
13974;BME280;7060;43.770;4.008;2023-06-04T10:55:19;100951.06;;;28.86;37.17
13974;BME280;7060;43.770;4.008;2023-06-04T10:57:52;100945.28;;;28.87;37.70
13974;BME280;7060;43.770;4.008;2023-06-04T11:00:21;100948.13;;;28.97;37.28
13974;BME280;7060;43.770;4.008;2023-06-04T11:02:53;100951.50;;;29.00;36.78
13974;BME280;7060;43.770;4.008;2023-06-04T11:05:33;100937.53;;;29.11;37.06
13974;BME280;7060;43.770;4.008;2023-06-04T11:08:03;100939.28;;;29.22;36.89
13974;BME280;7060;43.770;4.008;2023-06-04T11:10:34;100932.75;;;29.39;36.80
13974;BME280;7060;43.770;4.008;2023-06-04T11:13:04;100938.81;;;29.36;36.37
13974;BME280;7060;43.770;4.008;2023-06-04T11:15:40;100930.34;;;29.10;36.17
13974;BME280;7060;43.770;4.008;2023-06-04T11:18:13;100923.97;;;29.00;36.13
13974;BME280;7060;43.770;4.008;2023-06-04T11:20:44;100922.09;;;29.05;36.66
13974;BME280;7060;43.770;4.008;2023-06-04T11:23:13;100923.53;;;29.18;36.39
13974;BME280;7060;43.770;4.008;2023-06-04T11:25:44;100921.75;;;29.39;36.18
13974;BME280;7060;43.770;4.008;2023-06-04T11:28:16;100928.94;;;29.45;36.16
13974;BME280;7060;43.770;4.008;2023-06-04T11:30:56;100931.84;;;29.65;36.08
13974;BME280;7060;43.770;4.008;2023-06-04T11:33:25;100916.47;;;29.74;35.37
13974;BME280;7060;43.770;4.008;2023-06-04T11:35:53;100924.50;;;29.86;34.60
13974;BME280;7060;43.770;4.008;2023-06-04T11:38:22;100914.84;;;29.83;34.72
13974;BME280;7060;43.770;4.008;2023-06-04T11:40:59;100903.50;;;29.75;35.40
13974;BME280;7060;43.770;4.008;2023-06-04T11:43:29;100906.81;;;29.77;34.61
13974;BME280;7060;43.770;4.008;2023-06-04T11:45:57;100889.16;;;29.62;34.99
13974;BME280;7060;43.770;4.008;2023-06-04T11:48:26;100911.53;;;29.81;35.37
13974;BME280;7060;43.770;4.008;2023-06-04T11:50:55;100911.03;;;29.94;34.66
13974;BME280;7060;43.770;4.008;2023-06-04T11:53:28;100910.22;;;29.99;34.32
13974;BME280;7060;43.770;4.008;2023-06-04T11:55:59;100910.22;;;29.99;34.95
13974;BME280;7060;43.770;4.008;2023-06-04T11:58:28;100914.53;;;29.75;35.11
13974;BME280;7060;43.770;4.008;2023-06-04T12:00:58;100906.66;;;29.46;36.33
13974;BME280;7060;43.770;4.008;2023-06-04T12:03:35;100902.56;;;29.12;38.30
13974;BME280;7060;43.770;4.008;2023-06-04T12:06:12;100900.94;;;28.79;38.85
13974;BME280;7060;43.770;4.008;2023-06-04T12:08:47;100894.91;;;28.55;39.82
13974;BME280;7060;43.770;4.008;2023-06-04T12:11:28;100905.75;;;28.40;41.00
13974;BME280;7060;43.770;4.008;2023-06-04T12:13:59;100897.91;;;28.48;40.81
13974;BME280;7060;43.770;4.008;2023-06-04T12:16:28;100902.50;;;28.70;40.94
13974;BME280;7060;43.770;4.008;2023-06-04T12:19:07;100905.00;;;28.71;40.89
13974;BME280;7060;43.770;4.008;2023-06-04T12:21:36;100899.28;;;28.83;41.38
13974;BME280;7060;43.770;4.008;2023-06-04T12:24:09;100896.19;;;29.01;40.78
13974;BME280;7060;43.770;4.008;2023-06-04T12:26:40;100900.34;;;29.04;40.97
13974;BME280;7060;43.770;4.008;2023-06-04T12:29:15;100883.66;;;28.88;40.91
13974;BME280;7060;43.770;4.008;2023-06-04T12:31:45;100883.91;;;28.87;40.87
13974;BME280;7060;43.770;4.008;2023-06-04T12:34:14;100870.25;;;28.97;41.05
13974;BME280;7060;43.770;4.008;2023-06-04T12:36:44;100888.63;;;29.23;40.51
13974;BME280;7060;43.770;4.008;2023-06-04T12:39:13;100877.94;;;29.32;40.33
13974;BME280;7060;43.770;4.008;2023-06-04T12:41:46;100879.63;;;29.43;39.96
13974;BME280;7060;43.770;4.008;2023-06-04T12:44:15;100873.88;;;29.50;39.63
13974;BME280;7060;43.770;4.008;2023-06-04T12:46:43;100874.16;;;29.48;39.94
13974;BME280;7060;43.770;4.008;2023-06-04T12:49:12;100874.16;;;29.48;40.13
13974;BME280;7060;43.770;4.008;2023-06-04T12:51:40;100869.41;;;29.39;40.16
13974;BME280;7060;43.770;4.008;2023-06-04T12:54:09;100867.59;;;29.12;40.84
13974;BME280;7060;43.770;4.008;2023-06-04T12:56:39;100864.03;;;29.07;40.64
13974;BME280;7060;43.770;4.008;2023-06-04T12:59:09;100862.31;;;29.01;40.38
13974;BME280;7060;43.770;4.008;2023-06-04T13:01:37;100860.69;;;29.05;40.41
13974;BME280;7060;43.770;4.008;2023-06-04T13:04:06;100862.41;;;29.16;39.61
13974;BME280;7060;43.770;4.008;2023-06-04T13:06:35;100871.84;;;29.25;39.37
13974;BME280;7060;43.770;4.008;2023-06-04T13:09:05;100868.06;;;29.36;39.35
13974;BME280;7060;43.770;4.008;2023-06-04T13:11:37;100869.97;;;29.41;38.74
13974;BME280;7060;43.770;4.008;2023-06-04T13:14:07;100863.78;;;29.18;39.31
13974;BME280;7060;43.770;4.008;2023-06-04T13:16:37;100882.06;;;29.29;38.40
13974;BME280;7060;43.770;4.008;2023-06-04T13:19:07;100880.69;;;29.37;38.64